Time;durP1;ratioP1;P1;durP2;ratioP2;P2;SDS_P1;SDS_P2;PMS_P1;PMS_P2;Temp;Humidity;BMP_temperature;BMP_pressure;BME280_temperature;BME280_humidity;BME280_pressure;Samples;Min_cycle;Max_cycle;Signal;HPM_P1;HPM_P2
2022/04/11 00:01:26;;;;;;;0.70;0.70;;;;;;;;;;5069731;28;20189;-76
2022/04/11 00:03:53;;;;;;;0.70;0.70;;;;;;;;;;5038169;28;20204;-75
2022/04/11 00:06:20;;;;;;;0.70;0.65;;;;;;;;;;5074358;28;20208;-76
2022/04/11 00:08:47;;;;;;;0.70;0.70;;;;;;;;;;5071239;28;20181;-76
2022/04/11 00:11:14;;;;;;;0.70;0.60;;;;;;;;;;5072518;28;20200;-76
2022/04/11 00:13:41;;;;;;;0.70;0.70;;;;;;;;;;5071842;28;20197;-76
2022/04/11 00:16:09;;;;;;;0.70;0.70;;;;;;;;;;5065301;28;20196;-75
2022/04/11 00:18:37;;;;;;;0.80;0.80;;;;;;;;;;5052000;28;20201;-76
2022/04/11 00:21:03;;;;;;;0.70;0.60;;;;;;;;;;5051909;28;20296;-76
2022/04/11 00:23:30;;;;;;;0.70;0.70;;;;;;;;;;5052438;28;20216;-76
2022/04/11 00:25:57;;;;;;;0.70;0.60;;;;;;;;;;5051113;28;20194;-76
2022/04/11 00:28:23;;;;;;;1.80;1.02;;;;;;;;;;5051533;28;20198;-75
2022/04/11 00:30:51;;;;;;;0.80;0.70;;;;;;;;;;5059437;28;20205;-75
2022/04/11 00:33:20;;;;;;;0.80;0.70;;;;;;;;;;5051736;28;20211;-76
2022/04/11 00:35:47;;;;;;;0.70;0.70;;;;;;;;;;5069346;28;20185;-76
2022/04/11 00:38:13;;;;;;;0.80;0.80;;;;;;;;;;5056571;28;20208;-75
2022/04/11 00:40:40;;;;;;;0.80;0.70;;;;;;;;;;5075847;28;20200;-75
2022/04/11 00:43:09;;;;;;;0.70;0.60;;;;;;;;;;5075620;28;20199;-75
2022/04/11 00:45:39;;;;;;;0.70;0.68;;;;;;;;;;5075611;28;20196;-77
2022/04/11 00:48:10;;;;;;;0.80;0.70;;;;;;;;;;5076806;28;20200;-76
2022/04/11 00:50:41;;;;;;;0.70;0.60;;;;;;;;;;5055084;28;20213;-76
2022/04/11 00:53:10;;;;;;;0.70;0.70;;;;;;;;;;5056682;28;20533;-77
2022/04/11 00:55:42;;;;;;;0.70;0.60;;;;;;;;;;5055927;28;20190;-77
2022/04/11 00:58:11;;;;;;;0.70;0.60;;;;;;;;;;5055226;28;20221;-76
2022/04/11 01:00:39;;;;;;;0.70;0.70;;;;;;;;;;5057527;28;20247;-75
2022/04/11 01:03:10;;;;;;;0.77;0.77;;;;;;;;;;5071951;28;20202;-75
2022/04/11 01:05:40;;;;;;;0.70;0.70;;;;;;;;;;5065627;28;20554;-76
2022/04/11 01:08:10;;;;;;;0.70;0.70;;;;;;;;;;5061258;28;20215;-75
2022/04/11 01:10:37;;;;;;;0.80;0.80;;;;;;;;;;5075990;28;20205;-75
2022/04/11 01:13:05;;;;;;;0.70;0.60;;;;;;;;;;5066921;28;20197;-75
2022/04/11 01:15:33;;;;;;;0.70;0.70;;;;;;;;;;5058465;28;20673;-75
2022/04/11 01:18:04;;;;;;;0.70;0.65;;;;;;;;;;5075145;28;20309;-75
2022/04/11 01:20:33;;;;;;;0.80;0.80;;;;;;;;;;5074633;28;20189;-75
2022/04/11 01:23:03;;;;;;;0.70;0.70;;;;;;;;;;5038440;28;20225;-77
2022/04/11 01:25:35;;;;;;;0.80;0.73;;;;;;;;;;5070803;28;20208;-77
2022/04/11 01:28:05;;;;;;;0.75;0.75;;;;;;;;;;5070875;28;20197;-76
2022/04/11 01:30:35;;;;;;;0.80;0.80;;;;;;;;;;5074500;28;20212;-76
2022/04/11 01:33:16;;;;;;;0.70;0.70;;;;;;;;;;5073588;28;20620;-76
2022/04/11 01:35:49;;;;;;;0.70;0.70;;;;;;;;;;5072327;28;20614;-76
2022/04/11 01:38:21;;;;;;;0.77;0.75;;;;;;;;;;5072819;28;20201;-76
2022/04/11 01:40:53;;;;;;;0.70;0.70;;;;;;;;;;5060786;28;20176;-76
2022/04/11 01:43:23;;;;;;;0.80;0.70;;;;;;;;;;5075235;28;20192;-76
2022/04/11 01:45:54;;;;;;;0.70;0.60;;;;;;;;;;5069058;28;20243;-77
2022/04/11 01:48:42;;;;;;;0.80;0.70;;;;;;;;;;5073143;28;20208;-76
2022/04/11 01:51:11;;;;;;;0.80;0.77;;;;;;;;;;5075938;28;20213;-76
2022/04/11 01:53:40;;;;;;;0.70;0.70;;;;;;;;;;5074311;28;20250;-76
2022/04/11 01:56:07;;;;;;;0.73;0.68;;;;;;;;;;5073576;28;20205;-75
2022/04/11 01:58:34;;;;;;;0.70;0.70;;;;;;;;;;5055472;28;20215;-75
2022/04/11 02:01:02;;;;;;;0.70;0.60;;;;;;;;;;5076261;28;20243;-76
2022/04/11 02:03:33;;;;;;;0.70;0.70;;;;;;;;;;5074443;28;20580;-75
2022/04/11 02:06:00;;;;;;;0.70;0.70;;;;;;;;;;5074619;28;20224;-75
2022/04/11 02:08:27;;;;;;;0.70;0.60;;;;;;;;;;5077294;28;20223;-76
2022/04/11 02:11:01;;;;;;;0.70;0.70;;;;;;;;;;5073512;28;20223;-75
2022/04/11 02:13:28;;;;;;;0.70;0.70;;;;;;;;;;5074618;28;20726;-75
2022/04/11 02:15:55;;;;;;;0.70;0.63;;;;;;;;;;5064562;28;20671;-75
2022/04/11 02:18:22;;;;;;;0.70;0.70;;;;;;;;;;5053446;28;20197;-76
2022/04/11 02:20:49;;;;;;;0.70;0.70;;;;;;;;;;5053868;28;20296;-75
2022/04/11 02:23:16;;;;;;;0.77;0.70;;;;;;;;;;5053982;28;20213;-75
2022/04/11 02:25:43;;;;;;;0.80;0.80;;;;;;;;;;5054574;28;20189;-75
2022/04/11 02:28:12;;;;;;;0.70;0.60;;;;;;;;;;5053285;28;20197;-75
2022/04/11 02:30:41;;;;;;;0.70;0.70;;;;;;;;;;5058501;28;20221;-77
2022/04/11 02:33:08;;;;;;;0.80;0.70;;;;;;;;;;5058888;28;20280;-75
2022/04/11 02:35:34;;;;;;;0.70;0.70;;;;;;;;;;5053200;28;20198;-77
2022/04/11 02:38:02;;;;;;;0.70;0.70;;;;;;;;;;5053346;28;20201;-77
2022/04/11 02:40:31;;;;;;;0.70;0.65;;;;;;;;;;5037827;28;20198;-77
2022/04/11 02:43:17;;;;;;;0.70;0.70;;;;;;;;;;5053079;28;20193;-76
2022/04/11 02:45:50;;;;;;;0.73;0.70;;;;;;;;;;5038180;28;20193;-77
2022/04/11 02:48:23;;;;;;;0.70;0.70;;;;;;;;;;5056825;28;20248;-76
2022/04/11 02:50:57;;;;;;;0.70;0.70;;;;;;;;;;5057788;28;20571;-77
2022/04/11 02:53:32;;;;;;;0.70;0.68;;;;;;;;;;5073609;28;20212;-77
2022/04/11 02:55:59;;;;;;;0.80;0.80;;;;;;;;;;5073296;28;20188;-77
2022/04/11 02:58:30;;;;;;;0.80;0.70;;;;;;;;;;5055525;28;20238;-76
2022/04/11 03:00:57;;;;;;;0.70;0.70;;;;;;;;;;5055717;28;20606;-77
2022/04/11 03:03:26;;;;;;;0.70;0.70;;;;;;;;;;5071606;28;20198;-76
2022/04/11 03:05:54;;;;;;;0.70;0.70;;;;;;;;;;5071932;28;20223;-74
2022/04/11 03:08:22;;;;;;;0.73;0.70;;;;;;;;;;5065092;28;20211;-76
2022/04/11 03:10:49;;;;;;;0.70;0.70;;;;;;;;;;5073351;28;20633;-76
2022/04/11 03:13:16;;;;;;;0.80;0.80;;;;;;;;;;5056283;28;20195;-76
2022/04/11 03:15:46;;;;;;;0.70;0.70;;;;;;;;;;5057251;28;20593;-76
2022/04/11 03:18:14;;;;;;;0.82;0.82;;;;;;;;;;5055478;28;20234;-76
2022/04/11 03:20:42;;;;;;;0.80;0.80;;;;;;;;;;5069996;28;20185;-76
2022/04/11 03:23:09;;;;;;;0.70;0.70;;;;;;;;;;5072275;28;20296;-76
2022/04/11 03:25:39;;;;;;;0.77;0.73;;;;;;;;;;5072679;28;20597;-76
2022/04/11 03:28:11;;;;;;;0.80;0.80;;;;;;;;;;5073437;28;20197;-77
2022/04/11 03:30:39;;;;;;;0.73;0.70;;;;;;;;;;5071175;28;20216;-76
2022/04/11 03:33:07;;;;;;;0.80;0.77;;;;;;;;;;5072352;28;20189;-76
2022/04/11 03:35:36;;;;;;;0.70;0.70;;;;;;;;;;5075401;28;20193;-76
2022/04/11 03:38:03;;;;;;;0.70;0.70;;;;;;;;;;5063282;28;20185;-77
2022/04/11 03:40:30;;;;;;;0.80;0.80;;;;;;;;;;5052434;28;20200;-77
2022/04/11 03:43:02;;;;;;;0.75;0.70;;;;;;;;;;5064922;28;20692;-76
2022/04/11 03:45:30;;;;;;;0.70;0.70;;;;;;;;;;5046964;28;20197;-76
2022/04/11 03:47:58;;;;;;;0.70;0.60;;;;;;;;;;5052891;28;20200;-77
2022/04/11 03:50:31;;;;;;;0.70;0.70;;;;;;;;;;5052348;28;20636;-77
2022/04/11 03:52:58;;;;;;;0.70;0.70;;;;;;;;;;5071965;28;20196;-77
2022/04/11 03:55:25;;;;;;;0.75;0.70;;;;;;;;;;5072496;28;20723;-77
2022/04/11 03:57:54;;;;;;;0.70;0.70;;;;;;;;;;5071682;28;20284;-76
2022/04/11 04:00:23;;;;;;;0.70;0.65;;;;;;;;;;5062045;28;20699;-76
2022/04/11 04:03:16;;;;;;;0.70;0.70;;;;;;;;;;5055659;28;20201;-76
2022/04/11 04:05:50;;;;;;;0.73;0.70;;;;;;;;;;5053240;28;20236;-76
2022/04/11 04:08:22;;;;;;;0.70;0.70;;;;;;;;;;5053031;28;20189;-76
2022/04/11 04:10:56;;;;;;;0.70;0.70;;;;;;;;;;5074472;28;20259;-75
2022/04/11 04:13:26;;;;;;;0.70;0.70;;;;;;;;;;5076632;28;20200;-76
2022/04/11 04:15:54;;;;;;;0.70;0.70;;;;;;;;;;5064759;28;20189;-77
2022/04/11 04:18:22;;;;;;;0.70;0.70;;;;;;;;;;5056987;28;20189;-78
2022/04/11 04:20:51;;;;;;;0.70;0.70;;;;;;;;;;5056790;28;20220;-76
2022/04/11 04:23:18;;;;;;;0.77;0.70;;;;;;;;;;5039133;28;20662;-76
2022/04/11 04:25:45;;;;;;;0.70;0.63;;;;;;;;;;5056768;28;20661;-76
2022/04/11 04:28:13;;;;;;;0.80;0.80;;;;;;;;;;5056576;28;20208;-76
2022/04/11 04:30:40;;;;;;;0.80;0.80;;;;;;;;;;5065807;28;20219;-76
2022/04/11 04:33:10;;;;;;;0.80;0.77;;;;;;;;;;5055258;28;20293;-77
2022/04/11 04:35:37;;;;;;;0.75;0.75;;;;;;;;;;5039954;28;20217;-77
2022/04/11 04:38:09;;;;;;;0.70;0.70;;;;;;;;;;5056303;28;20194;-77
2022/04/11 04:40:46;;;;;;;0.90;0.90;;;;;;;;;;5056176;28;20196;-75
2022/04/11 04:43:16;;;;;;;0.70;0.70;;;;;;;;;;5040092;28;20190;-76
2022/04/11 04:45:45;;;;;;;0.70;0.70;;;;;;;;;;5039451;28;20192;-75
2022/04/11 04:48:22;;;;;;;0.70;0.70;;;;;;;;;;5057888;28;20533;-76
2022/04/11 04:50:49;;;;;;;0.70;0.65;;;;;;;;;;5054927;28;20673;-76
2022/04/11 04:53:18;;;;;;;0.70;0.60;;;;;;;;;;5070602;28;20680;-76
2022/04/11 04:55:53;;;;;;;0.70;0.60;;;;;;;;;;5075732;28;20246;-76
2022/04/11 04:58:20;;;;;;;0.73;0.70;;;;;;;;;;5075676;28;20243;-76
2022/04/11 05:00:49;;;;;;;0.70;0.70;;;;;;;;;;5058799;28;20192;-75
2022/04/11 05:03:19;;;;;;;0.70;0.68;;;;;;;;;;5066826;28;20246;-76
2022/04/11 05:05:52;;;;;;;0.70;0.70;;;;;;;;;;5074182;28;20213;-76
2022/04/11 05:08:20;;;;;;;0.80;0.77;;;;;;;;;;5075082;28;20611;-76
2022/04/11 05:10:47;;;;;;;0.80;0.80;;;;;;;;;;5072544;28;20225;-76
2022/04/11 05:13:14;;;;;;;0.70;0.70;;;;;;;;;;5069192;28;20197;-77
2022/04/11 05:15:42;;;;;;;2.88;2.67;;;;;;;;;;5056543;28;20195;-77
2022/04/11 05:18:15;;;;;;;0.70;0.70;;;;;;;;;;5057721;28;20569;-77
2022/04/11 05:20:43;;;;;;;0.80;0.70;;;;;;;;;;5055000;28;20193;-76
2022/04/11 05:23:10;;;;;;;0.70;0.70;;;;;;;;;;5073253;28;20208;-76
2022/04/11 05:25:41;;;;;;;0.80;0.70;;;;;;;;;;5075023;28;20657;-76
2022/04/11 05:28:09;;;;;;;1.83;1.73;;;;;;;;;;5074616;28;20197;-76
2022/04/11 05:31:02;;;;;;;0.75;0.75;;;;;;;;;;5073671;28;20682;-76
2022/04/11 05:33:35;;;;;;;0.80;0.80;;;;;;;;;;5059158;28;20198;-77
2022/04/11 05:36:05;;;;;;;0.73;0.73;;;;;;;;;;5073493;28;20252;-75
2022/04/11 05:38:33;;;;;;;0.80;0.80;;;;;;;;;;5077198;28;20212;-75
2022/04/11 05:41:01;;;;;;;0.80;0.80;;;;;;;;;;5074377;28;20269;-76
2022/04/11 05:43:38;;;;;;;0.80;0.70;;;;;;;;;;5074607;28;20193;-77
2022/04/11 05:46:06;;;;;;;0.70;0.70;;;;;;;;;;5073107;28;20636;-76
2022/04/11 05:48:35;;;;;;;0.70;0.60;;;;;;;;;;5094382;28;20687;-76
2022/04/11 05:51:04;;;;;;;0.70;0.70;;;;;;;;;;5077890;28;20721;-77
2022/04/11 05:53:31;;;;;;;0.70;0.70;;;;;;;;;;5094496;28;20267;-76
2022/04/11 05:55:59;;;;;;;0.80;0.80;;;;;;;;;;5094568;28;20220;-76
2022/04/11 05:58:29;;;;;;;0.70;0.60;;;;;;;;;;5077588;28;20225;-76
2022/04/11 06:00:57;;;;;;;0.70;0.65;;;;;;;;;;5063273;28;20276;-76
2022/04/11 06:03:25;;;;;;;0.70;0.70;;;;;;;;;;5053894;28;20654;-75
2022/04/11 06:05:52;;;;;;;0.70;0.60;;;;;;;;;;5053983;28;20577;-76
2022/04/11 06:08:20;;;;;;;0.70;0.70;;;;;;;;;;5070151;28;20239;-76
2022/04/11 06:10:46;;;;;;;0.70;0.70;;;;;;;;;;5037615;28;20719;-76
2022/04/11 06:13:18;;;;;;;0.70;0.60;;;;;;;;;;5054220;28;20284;-75
2022/04/11 06:15:48;;;;;;;0.70;0.60;;;;;;;;;;5052903;28;20240;-76
2022/04/11 06:18:16;;;;;;;0.70;0.63;;;;;;;;;;5053925;28;20201;-76
2022/04/11 06:20:45;;;;;;;0.70;0.60;;;;;;;;;;5054607;28;20685;-76
2022/04/11 06:23:13;;;;;;;0.77;0.68;;;;;;;;;;5053529;28;20193;-76
2022/04/11 06:25:40;;;;;;;0.70;0.60;;;;;;;;;;5037148;28;20610;-76
2022/04/11 06:28:07;;;;;;;0.70;0.60;;;;;;;;;;5054232;28;20209;-77
2022/04/11 06:30:34;;;;;;;0.70;0.60;;;;;;;;;;5058719;28;20448;-77
2022/04/11 06:33:02;;;;;;;0.70;0.60;;;;;;;;;;5047604;28;20487;-76
2022/04/11 06:35:33;;;;;;;0.70;0.70;;;;;;;;;;5056897;28;20500;-76
2022/04/11 06:38:00;;;;;;;0.70;0.60;;;;;;;;;;5073659;28;20522;-76
2022/04/11 06:40:26;;;;;;;0.70;0.60;;;;;;;;;;5072690;28;20461;-76
2022/04/11 06:42:53;;;;;;;0.70;0.70;;;;;;;;;;5073048;28;20814;-76
2022/04/11 06:45:43;;;;;;;0.70;0.60;;;;;;;;;;5072631;28;20455;-76
2022/04/11 06:48:12;;;;;;;0.70;0.60;;;;;;;;;;5070895;28;20462;-76
2022/04/11 06:50:40;;;;;;;0.70;0.60;;;;;;;;;;5078364;28;20439;-76
2022/04/11 06:53:07;;;;;;;0.70;0.60;;;;;;;;;;5076431;28;20565;-75
2022/04/11 06:55:34;;;;;;;0.70;0.60;;;;;;;;;;5094676;28;20428;-76
2022/04/11 06:58:01;;;;;;;0.70;0.60;;;;;;;;;;5054296;28;20454;-76
2022/04/11 07:00:28;;;;;;;0.70;0.70;;;;;;;;;;5072680;28;20979;-75
2022/04/11 07:02:54;;;;;;;0.70;0.60;;;;;;;;;;5056690;28;20427;-75
2022/04/11 07:05:23;;;;;;;0.70;0.60;;;;;;;;;;5058544;28;20486;-76
2022/04/11 07:07:50;;;;;;;0.90;0.90;;;;;;;;;;5052910;28;20794;-75
2022/04/11 07:10:19;;;;;;;0.80;0.80;;;;;;;;;;5069166;28;20441;-77
2022/04/11 07:12:45;;;;;;;0.80;0.70;;;;;;;;;;5054366;28;20462;-77
2022/04/11 07:15:13;;;;;;;0.70;0.60;;;;;;;;;;5069309;28;20423;-76
2022/04/11 07:17:42;;;;;;;0.80;0.77;;;;;;;;;;5071761;28;20870;-77
2022/04/11 07:20:10;;;;;;;0.80;0.70;;;;;;;;;;5078877;28;20961;-78
2022/04/11 07:22:38;;;;;;;0.80;0.70;;;;;;;;;;5053862;28;20446;-77
2022/04/11 07:25:05;;;;;;;1.00;0.90;;;;;;;;;;5051153;28;20989;-77
2022/04/11 07:27:32;;;;;;;0.70;0.70;;;;;;;;;;5051948;28;20416;-78
2022/04/11 07:29:58;;;;;;;0.80;0.70;;;;;;;;;;5055977;28;20456;-77
2022/04/11 07:32:26;;;;;;;0.80;0.60;;;;;;;;;;5072699;28;20838;-77
2022/04/11 07:34:56;;;;;;;0.80;0.70;;;;;;;;;;5073023;28;20521;-77
2022/04/11 07:37:25;;;;;;;0.70;0.60;;;;;;;;;;5069751;28;20853;-77
2022/04/11 07:39:54;;;;;;;0.80;0.60;;;;;;;;;;5073001;28;20443;-77
2022/04/11 07:42:20;;;;;;;0.80;0.60;;;;;;;;;;5090281;28;20431;-77
2022/04/11 07:44:47;;;;;;;0.70;0.60;;;;;;;;;;5086054;28;20827;-80
2022/04/11 07:47:14;;;;;;;0.73;0.63;;;;;;;;;;5054609;28;20778;-77
2022/04/11 07:49:42;;;;;;;0.87;0.73;;;;;;;;;;5063907;28;20443;-79
2022/04/11 07:52:09;;;;;;;1.43;0.90;;;;;;;;;;5072526;28;20566;-77
2022/04/11 07:54:36;;;;;;;0.80;0.80;;;;;;;;;;5073387;28;20886;-77
2022/04/11 07:57:05;;;;;;;1.63;1.33;;;;;;;;;;5073392;28;20442;-77
2022/04/11 07:59:32;;;;;;;0.97;0.87;;;;;;;;;;5072099;28;20483;-78
2022/04/11 08:01:59;;;;;;;0.70;0.70;;;;;;;;;;5052124;28;20455;-77
2022/04/11 08:04:27;;;;;;;0.73;0.70;;;;;;;;;;5071688;28;20453;-77
2022/04/11 08:06:53;;;;;;;3.20;1.10;;;;;;;;;;5072618;28;20446;-77
2022/04/11 08:09:20;;;;;;;0.80;0.77;;;;;;;;;;5072534;28;20431;-76
2022/04/11 08:11:47;;;;;;;0.70;0.60;;;;;;;;;;5073641;28;20467;-77
2022/04/11 08:14:16;;;;;;;0.80;0.70;;;;;;;;;;5072224;28;20479;-77
2022/04/11 08:16:43;;;;;;;1.10;1.00;;;;;;;;;;5070324;28;20454;-78
2022/04/11 08:19:10;;;;;;;0.70;0.70;;;;;;;;;;5055856;28;20443;-76
2022/04/11 08:21:37;;;;;;;0.70;0.70;;;;;;;;;;5073875;28;20942;-77
2022/04/11 08:24:04;;;;;;;0.73;0.70;;;;;;;;;;5076076;28;20447;-77
2022/04/11 08:26:31;;;;;;;0.80;0.80;;;;;;;;;;5073154;28;20438;-79
2022/04/11 08:28:58;;;;;;;0.70;0.60;;;;;;;;;;5072426;28;20526;-78
2022/04/11 08:31:27;;;;;;;0.70;0.70;;;;;;;;;;5069865;28;20994;-79
2022/04/11 08:33:55;;;;;;;0.70;0.70;;;;;;;;;;5073176;28;20431;-77
2022/04/11 08:36:22;;;;;;;1.00;0.90;;;;;;;;;;5072358;28;20459;-77
2022/04/11 08:38:52;;;;;;;0.70;0.60;;;;;;;;;;5072919;28;20512;-79
2022/04/11 08:41:19;;;;;;;0.80;0.73;;;;;;;;;;5072805;28;20423;-77
2022/04/11 08:43:46;;;;;;;0.70;0.70;;;;;;;;;;5070681;28;20440;-80
2022/04/11 08:46:16;;;;;;;0.70;0.70;;;;;;;;;;5071101;28;20449;-76
2022/04/11 08:48:44;;;;;;;1.33;1.23;;;;;;;;;;5052701;28;20523;-76
2022/04/11 08:51:11;;;;;;;0.80;0.70;;;;;;;;;;5073166;28;20975;-77
2022/04/11 08:53:39;;;;;;;1.00;0.90;;;;;;;;;;5063131;28;20471;-78
2022/04/11 08:56:05;;;;;;;0.70;0.70;;;;;;;;;;5071746;28;20443;-77
2022/04/11 08:58:33;;;;;;;0.70;0.60;;;;;;;;;;5073633;28;20412;-76
2022/04/11 09:01:00;;;;;;;0.80;0.70;;;;;;;;;;5059432;28;20413;-76
2022/04/11 09:03:27;;;;;;;0.70;0.70;;;;;;;;;;5075792;28;20427;-77
2022/04/11 09:06:09;;;;;;;0.87;0.83;;;;;;;;;;5060976;28;20468;-77
2022/04/11 09:08:37;;;;;;;0.80;0.70;;;;;;;;;;5061836;28;20437;-76
2022/04/11 09:11:04;;;;;;;0.70;0.70;;;;;;;;;;5075409;28;20452;-79
2022/04/11 09:13:45;;;;;;;0.70;0.60;;;;;;;;;;5074944;28;20498;-78
2022/04/11 09:16:12;;;;;;;1.00;0.90;;;;;;;;;;5075241;28;20409;-77
2022/04/11 09:18:44;;;;;;;1.30;1.20;;;;;;;;;;5073897;28;20443;-79
2022/04/11 09:21:12;;;;;;;2.53;0.87;;;;;;;;;;5055191;28;20453;-77
2022/04/11 09:23:39;;;;;;;0.70;0.60;;;;;;;;;;5074598;28;20458;-79
2022/04/11 09:26:14;;;;;;;0.70;0.60;;;;;;;;;;5074462;28;20480;-79
2022/04/11 09:28:41;;;;;;;0.80;0.70;;;;;;;;;;5074625;28;20438;-78
2022/04/11 09:31:08;;;;;;;0.80;0.80;;;;;;;;;;5070348;28;20539;-78
2022/04/11 09:33:37;;;;;;;0.70;0.70;;;;;;;;;;5055464;28;20434;-76
2022/04/11 09:36:04;;;;;;;0.80;0.80;;;;;;;;;;5065413;28;20867;-78
2022/04/11 09:38:36;;;;;;;0.80;0.70;;;;;;;;;;5075526;28;20402;-77
2022/04/11 09:41:03;;;;;;;0.70;0.60;;;;;;;;;;5075649;28;20386;-77
2022/04/11 09:43:31;;;;;;;0.80;0.70;;;;;;;;;;5076088;28;20433;-77
2022/04/11 09:45:59;;;;;;;;;;;;;;;;;;5073292;28;20306;-79
2022/04/11 09:48:25;;;;;;;;;;;;;;;;;;5074326;28;19930;-77
2022/04/11 09:50:52;;;;;;;;;;;;;;;;;;5074857;28;19920;-79
2022/04/11 09:53:19;;;;;;;;;;;;;;;;;;5075944;28;19987;-77
2022/04/11 09:55:46;;;;;;;;;;;;;;;;;;5078099;28;19920;-77
2022/04/11 09:58:16;;;;;;;;;;;;;;;;;;5074925;28;19920;-78
2022/04/11 10:00:45;;;;;;;0.70;0.60;;;;;;;;;;5073532;28;20268;-79
2022/04/11 10:03:12;;;;;;;0.70;0.60;;;;;;;;;;5075250;28;20457;-77
2022/04/11 10:05:40;;;;;;;0.70;0.60;;;;;;;;;;5074488;28;20497;-78
2022/04/11 10:08:07;;;;;;;0.70;0.60;;;;;;;;;;5073282;28;20490;-79
2022/04/11 10:10:35;;;;;;;0.80;0.70;;;;;;;;;;5057866;28;20830;-79
2022/04/11 10:13:01;;;;;;;0.80;0.73;;;;;;;;;;5057202;28;20542;-80
2022/04/11 10:15:32;;;;;;;0.70;0.60;;;;;;;;;;5069310;28;20429;-78
2022/04/11 10:18:01;;;;;;;0.70;0.60;;;;;;;;;;5053596;28;20475;-78
2022/04/11 10:20:29;;;;;;;0.70;0.60;;;;;;;;;;5073816;28;20467;-77
2022/04/11 10:23:14;;;;;;;0.70;0.60;;;;;;;;;;5075035;28;20423;-76
2022/04/11 10:25:45;;;;;;;0.70;0.60;;;;;;;;;;5073351;28;20443;-75
2022/04/11 10:28:18;;;;;;;0.80;0.70;;;;;;;;;;5073497;28;20426;-77
2022/04/11 10:30:46;;;;;;;0.83;0.83;;;;;;;;;;5073885;28;20443;-78
2022/04/11 10:33:14;;;;;;;0.70;0.60;;;;;;;;;;5070279;28;20979;-76
2022/04/11 10:35:42;;;;;;;0.70;0.60;;;;;;;;;;5072844;28;20435;-78
2022/04/11 10:38:09;;;;;;;0.70;0.60;;;;;;;;;;5072304;28;20457;-78
2022/04/11 10:40:37;;;;;;;2.27;0.80;;;;;;;;;;5072771;28;20456;-77
2022/04/11 10:43:12;;;;;;;0.70;0.60;;;;;;;;;;5071726;28;20418;-76
2022/04/11 10:45:42;;;;;;;0.90;0.67;;;;;;;;;;5074823;28;20431;-74
2022/04/11 10:48:10;;;;;;;0.80;0.70;;;;;;;;;;5053065;28;20447;-77
2022/04/11 10:50:38;;;;;;;0.70;0.60;;;;;;;;;;5074250;28;20808;-77
2022/04/11 10:53:07;;;;;;;0.70;0.60;;;;;;;;;;5072706;28;20449;-77
2022/04/11 10:55:34;;;;;;;0.70;0.60;;;;;;;;;;5074447;28;20433;-77
2022/04/11 10:58:04;;;;;;;0.80;0.70;;;;;;;;;;5055080;28;20422;-74
2022/04/11 11:00:31;;;;;;;1.30;1.20;;;;;;;;;;5073695;28;20501;-76
2022/04/11 11:03:17;;;;;;;0.80;0.70;;;;;;;;;;5076544;28;20390;-78
2022/04/11 11:06:19;;;;;;;0.97;0.87;;;;;;;;;;5073853;28;20447;-76
2022/04/11 11:08:45;;;;;;;0.80;0.70;;;;;;;;;;5074114;28;20846;-77
2022/04/11 11:11:22;;;;;;;0.80;0.70;;;;;;;;;;5074055;28;20510;-77
2022/04/11 11:13:50;;;;;;;0.73;0.70;;;;;;;;;;5060000;28;20465;-75
2022/04/11 11:16:36;;;;;;;2.50;0.80;;;;;;;;;;5052968;28;20424;-76
2022/04/11 11:19:20;;;;;;;0.80;0.70;;;;;;;;;;5062318;28;20784;-76
2022/04/11 11:21:58;;;;;;;1.73;1.57;;;;;;;;;;5070477;28;20475;-76
2022/04/11 11:24:25;;;;;;;0.80;0.70;;;;;;;;;;5059776;28;20887;-75
2022/04/11 11:26:53;;;;;;;1.40;0.83;;;;;;;;;;5035997;28;20773;-76
2022/04/11 11:29:21;;;;;;;0.70;0.60;;;;;;;;;;5054470;28;20928;-76
2022/04/11 11:31:49;;;;;;;0.70;0.60;;;;;;;;;;5053154;28;20909;-75
2022/04/11 11:34:16;;;;;;;0.70;0.67;;;;;;;;;;5051950;28;20452;-75
2022/04/11 11:36:44;;;;;;;0.70;0.63;;;;;;;;;;5036115;28;20970;-78
2022/04/11 11:39:12;;;;;;;0.70;0.60;;;;;;;;;;5071184;28;20484;-77
2022/04/11 11:41:42;;;;;;;0.70;0.63;;;;;;;;;;5073225;28;20443;-76
2022/04/11 11:44:09;;;;;;;0.80;0.73;;;;;;;;;;5073429;28;20765;-77
2022/04/11 11:46:47;;;;;;;0.80;0.70;;;;;;;;;;5073276;28;20425;-77
2022/04/11 11:49:14;;;;;;;0.70;0.60;;;;;;;;;;5065459;28;20432;-77
2022/04/11 11:51:41;;;;;;;0.80;0.70;;;;;;;;;;5073337;28;20459;-77
2022/04/11 11:54:08;;;;;;;0.70;0.60;;;;;;;;;;5072900;28;20993;-76
2022/04/11 11:56:43;;;;;;;0.70;0.60;;;;;;;;;;5076489;28;20423;-74
2022/04/11 11:59:10;;;;;;;0.70;0.60;;;;;;;;;;5070844;28;20425;-76
2022/04/11 12:01:37;;;;;;;0.80;0.70;;;;;;;;;;5054897;28;20444;-76
2022/04/11 12:04:19;;;;;;;0.80;0.70;;;;;;;;;;5053037;28;20447;-75
2022/04/11 12:06:52;;;;;;;0.70;0.67;;;;;;;;;;5053468;28;20418;-75
2022/04/11 12:09:19;;;;;;;1.90;1.00;;;;;;;;;;5052271;28;20414;-75
2022/04/11 12:11:47;;;;;;;0.80;0.70;;;;;;;;;;5052032;28;20443;-75
2022/04/11 12:14:13;;;;;;;0.70;0.70;;;;;;;;;;5051755;28;21065;-75
2022/04/11 12:16:55;;;;;;;0.80;0.70;;;;;;;;;;5047582;28;20967;-74
2022/04/11 12:19:31;;;;;;;0.80;0.80;;;;;;;;;;5072993;28;20472;-75
2022/04/11 12:22:11;;;;;;;0.73;0.70;;;;;;;;;;5073292;28;20497;-74
2022/04/11 12:24:37;;;;;;;0.70;0.60;;;;;;;;;;5073202;28;20437;-74
2022/04/11 12:27:06;;;;;;;1.10;1.00;;;;;;;;;;5055072;28;20580;-76
2022/04/11 12:29:40;;;;;;;0.93;0.83;;;;;;;;;;5055325;28;20446;-76
2022/04/11 12:32:11;;;;;;;0.70;0.70;;;;;;;;;;5056097;28;20439;-76
2022/04/11 12:34:39;;;;;;;0.80;0.70;;;;;;;;;;5075200;28;20462;-75
2022/04/11 12:37:07;;;;;;;0.80;0.70;;;;;;;;;;5075534;28;20458;-76
2022/04/11 12:39:48;;;;;;;0.80;0.70;;;;;;;;;;5077122;28;20516;-75
2022/04/11 12:42:18;;;;;;;0.70;0.70;;;;;;;;;;5074467;28;20439;-75
2022/04/11 12:44:46;;;;;;;0.70;0.60;;;;;;;;;;5075264;28;20476;-75
2022/04/11 12:47:19;;;;;;;0.70;0.70;;;;;;;;;;5077061;28;20418;-75
2022/04/11 12:49:46;;;;;;;0.70;0.70;;;;;;;;;;5058126;28;20947;-75
2022/04/11 12:52:13;;;;;;;0.70;0.63;;;;;;;;;;5055658;28;20980;-76
2022/04/11 12:54:43;;;;;;;0.80;0.70;;;;;;;;;;5056077;28;20996;-76
2022/04/11 12:57:11;;;;;;;0.80;0.80;;;;;;;;;;5056680;28;20428;-76
2022/04/11 12:59:46;;;;;;;0.70;0.60;;;;;;;;;;5056995;28;20422;-75
2022/04/11 13:02:14;;;;;;;0.80;0.73;;;;;;;;;;5077397;28;20423;-75
2022/04/11 13:04:42;;;;;;;0.70;0.60;;;;;;;;;;5074587;28;20439;-75
2022/04/11 13:07:10;;;;;;;0.77;0.70;;;;;;;;;;5076238;28;20458;-74
2022/04/11 13:09:38;;;;;;;0.77;0.70;;;;;;;;;;5076130;28;20389;-74
2022/04/11 13:12:08;;;;;;;0.70;0.60;;;;;;;;;;5075746;28;20423;-75
2022/04/11 13:14:35;;;;;;;0.70;0.70;;;;;;;;;;5075134;28;20485;-74
2022/04/11 13:19:50;;;;;;;0.70;0.60;;;;;;;;;;5075766;28;20423;-74
2022/04/11 13:22:16;;;;;;;0.70;0.63;;;;;;;;;;5059965;28;20562;-75
2022/04/11 13:24:43;;;;;;;0.80;0.70;;;;;;;;;;5056646;28;20398;-72
2022/04/11 13:27:10;;;;;;;0.80;0.70;;;;;;;;;;5055108;28;20955;-74
2022/04/11 13:29:37;;;;;;;0.70;0.70;;;;;;;;;;5056715;28;20406;-77
2022/04/11 13:32:06;;;;;;;1.00;0.80;;;;;;;;;;5074396;28;20423;-75
2022/04/11 13:34:32;;;;;;;0.70;0.60;;;;;;;;;;5074743;28;20565;-76
2022/04/11 13:36:59;;;;;;;0.90;0.80;;;;;;;;;;5072660;28;20546;-76
2022/04/11 13:39:49;;;;;;;0.80;0.70;;;;;;;;;;5056528;28;20418;-74
2022/04/11 13:42:15;;;;;;;0.80;0.80;;;;;;;;;;5074385;28;20943;-74
2022/04/11 13:44:42;;;;;;;0.70;0.60;;;;;;;;;;5070604;28;20429;-75
2022/04/11 13:47:10;;;;;;;0.70;0.60;;;;;;;;;;5056895;28;20454;-74
2022/04/11 13:49:40;;;;;;;0.70;0.60;;;;;;;;;;5074637;28;20438;-77
2022/04/11 13:52:09;;;;;;;0.70;0.70;;;;;;;;;;5058414;28;20497;-77
2022/04/11 13:54:36;;;;;;;0.80;0.67;;;;;;;;;;5078264;28;20524;-73
2022/04/11 13:57:03;;;;;;;0.80;0.77;;;;;;;;;;5073987;28;20430;-76
2022/04/11 13:59:32;;;;;;;0.70;0.60;;;;;;;;;;5049338;28;20434;-72
2022/04/11 14:01:58;;;;;;;0.77;0.60;;;;;;;;;;5073800;28;20479;-74
2022/04/11 14:04:27;;;;;;;0.70;0.60;;;;;;;;;;5074622;28;20526;-75
2022/04/11 14:06:53;;;;;;;0.80;0.80;;;;;;;;;;5076108;28;20424;-74
2022/04/11 14:09:20;;;;;;;0.70;0.60;;;;;;;;;;5073750;28;20515;-74
2022/04/11 14:12:07;;;;;;;0.80;0.80;;;;;;;;;;5074429;28;20521;-75
2022/04/11 14:14:34;;;;;;;1.10;0.80;;;;;;;;;;5057788;28;20459;-75
2022/04/11 14:17:01;;;;;;;0.77;0.70;;;;;;;;;;5073336;28;20473;-74
2022/04/11 14:19:29;;;;;;;0.70;0.70;;;;;;;;;;5074525;28;20455;-74
2022/04/11 14:22:00;;;;;;;0.70;0.60;;;;;;;;;;5073737;28;20466;-71
2022/04/11 14:24:27;;;;;;;0.70;0.70;;;;;;;;;;5075258;28;20488;-73
2022/04/11 14:26:54;;;;;;;0.70;0.60;;;;;;;;;;5074933;28;20417;-74
2022/04/11 14:29:21;;;;;;;0.80;0.70;;;;;;;;;;5072595;28;20451;-74
2022/04/11 14:31:47;;;;;;;0.70;0.70;;;;;;;;;;5039827;28;20452;-73
2022/04/11 14:34:14;;;;;;;0.70;0.60;;;;;;;;;;5054934;28;20499;-74
2022/04/11 14:36:42;;;;;;;0.70;0.70;;;;;;;;;;5054023;28;20787;-74
2022/04/11 14:39:13;;;;;;;0.70;0.70;;;;;;;;;;5070411;28;21030;-76
2022/04/11 14:41:40;;;;;;;0.70;0.60;;;;;;;;;;5074827;28;20798;-74
2022/04/11 14:44:08;;;;;;;0.70;0.70;;;;;;;;;;5074508;28;20419;-73
2022/04/11 14:46:35;;;;;;;0.80;0.60;;;;;;;;;;5077291;28;20958;-73
2022/04/11 14:49:02;;;;;;;0.70;0.60;;;;;;;;;;5081161;28;20454;-73
2022/04/11 14:51:29;;;;;;;0.80;0.80;;;;;;;;;;5074520;28;20454;-75
2022/04/11 14:53:57;;;;;;;0.70;0.60;;;;;;;;;;5075243;28;20454;-73
2022/04/11 14:56:23;;;;;;;0.70;0.60;;;;;;;;;;5074015;28;20430;-74
2022/04/11 14:58:50;;;;;;;0.70;0.70;;;;;;;;;;5073794;28;20751;-73
2022/04/11 15:01:18;;;;;;;0.70;0.70;;;;;;;;;;5070465;28;20456;-73